sensor_id;sensor_type;location;lat;lon;timestamp;P1;durP1;ratioP1;P2;durP2;ratioP2
33104;SDS011;19476;51.448;6.674;2022-11-20T00:01:05;13.88;;;8.40;;
33104;SDS011;19476;51.448;6.674;2022-11-20T00:03:33;13.63;;;8.73;;
33104;SDS011;19476;51.448;6.674;2022-11-20T00:05:59;14.07;;;8.38;;
33104;SDS011;19476;51.448;6.674;2022-11-20T00:08:26;13.93;;;8.55;;
33104;SDS011;19476;51.448;6.674;2022-11-20T00:11:03;14.85;;;8.18;;
33104;SDS011;19476;51.448;6.674;2022-11-20T00:17:16;15.05;;;9.20;;
33104;SDS011;19476;51.448;6.674;2022-11-20T00:26:26;13.98;;;8.07;;
33104;SDS011;19476;51.448;6.674;2022-11-20T00:28:56;12.40;;;8.35;;
33104;SDS011;19476;51.448;6.674;2022-11-20T00:31:32;16.33;;;8.90;;
33104;SDS011;19476;51.448;6.674;2022-11-20T00:40:16;15.07;;;8.88;;
33104;SDS011;19476;51.448;6.674;2022-11-20T00:51:29;16.60;;;9.68;;
33104;SDS011;19476;51.448;6.674;2022-11-20T00:53:56;19.60;;;10.57;;
33104;SDS011;19476;51.448;6.674;2022-11-20T00:56:24;19.15;;;10.40;;
33104;SDS011;19476;51.448;6.674;2022-11-20T01:01:38;17.27;;;9.80;;
33104;SDS011;19476;51.448;6.674;2022-11-20T01:04:04;17.33;;;9.60;;
33104;SDS011;19476;51.448;6.674;2022-11-20T01:06:34;14.95;;;9.02;;
33104;SDS011;19476;51.448;6.674;2022-11-20T01:09:03;15.15;;;9.80;;
33104;SDS011;19476;51.448;6.674;2022-11-20T01:11:32;17.20;;;9.60;;
33104;SDS011;19476;51.448;6.674;2022-11-20T01:14:04;18.40;;;10.80;;
33104;SDS011;19476;51.448;6.674;2022-11-20T01:16:32;14.95;;;9.73;;
33104;SDS011;19476;51.448;6.674;2022-11-20T01:19:00;16.13;;;10.13;;
33104;SDS011;19476;51.448;6.674;2022-11-20T01:21:30;15.73;;;8.35;;
33104;SDS011;19476;51.448;6.674;2022-11-20T01:23:58;15.40;;;9.25;;
33104;SDS011;19476;51.448;6.674;2022-11-20T01:26:26;13.35;;;8.43;;
33104;SDS011;19476;51.448;6.674;2022-11-20T01:28:54;15.50;;;8.95;;
33104;SDS011;19476;51.448;6.674;2022-11-20T01:31:27;12.18;;;8.00;;
33104;SDS011;19476;51.448;6.674;2022-11-20T01:33:56;14.38;;;8.48;;
33104;SDS011;19476;51.448;6.674;2022-11-20T01:36:24;13.35;;;8.50;;
33104;SDS011;19476;51.448;6.674;2022-11-20T01:38:51;12.68;;;8.52;;
33104;SDS011;19476;51.448;6.674;2022-11-20T01:41:22;15.45;;;9.00;;
33104;SDS011;19476;51.448;6.674;2022-11-20T01:44:08;16.08;;;9.35;;
33104;SDS011;19476;51.448;6.674;2022-11-20T01:46:36;15.80;;;9.32;;
33104;SDS011;19476;51.448;6.674;2022-11-20T01:49:15;13.57;;;8.63;;
33104;SDS011;19476;51.448;6.674;2022-11-20T01:51:52;15.65;;;8.80;;
33104;SDS011;19476;51.448;6.674;2022-11-20T01:54:36;14.00;;;8.75;;
33104;SDS011;19476;51.448;6.674;2022-11-20T01:57:08;13.07;;;8.35;;
33104;SDS011;19476;51.448;6.674;2022-11-20T01:59:37;15.10;;;9.07;;
33104;SDS011;19476;51.448;6.674;2022-11-20T02:02:07;14.40;;;9.02;;
33104;SDS011;19476;51.448;6.674;2022-11-20T02:04:33;15.10;;;8.88;;
33104;SDS011;19476;51.448;6.674;2022-11-20T02:07:01;15.05;;;9.52;;
33104;SDS011;19476;51.448;6.674;2022-11-20T02:09:29;15.40;;;9.93;;
33104;SDS011;19476;51.448;6.674;2022-11-20T02:11:55;14.70;;;9.40;;
33104;SDS011;19476;51.448;6.674;2022-11-20T02:14:22;15.80;;;9.15;;
33104;SDS011;19476;51.448;6.674;2022-11-20T02:16:49;14.07;;;9.05;;
33104;SDS011;19476;51.448;6.674;2022-11-20T02:19:22;14.35;;;9.40;;
33104;SDS011;19476;51.448;6.674;2022-11-20T02:21:59;17.25;;;10.38;;
33104;SDS011;19476;51.448;6.674;2022-11-20T02:24:26;15.10;;;10.05;;
33104;SDS011;19476;51.448;6.674;2022-11-20T02:27:09;15.32;;;9.32;;
33104;SDS011;19476;51.448;6.674;2022-11-20T02:29:38;17.20;;;10.00;;
33104;SDS011;19476;51.448;6.674;2022-11-20T02:32:26;16.45;;;9.82;;
33104;SDS011;19476;51.448;6.674;2022-11-20T02:34:57;17.08;;;10.82;;
33104;SDS011;19476;51.448;6.674;2022-11-20T02:37:32;14.80;;;9.57;;
33104;SDS011;19476;51.448;6.674;2022-11-20T02:40:00;14.15;;;9.48;;
33104;SDS011;19476;51.448;6.674;2022-11-20T02:42:26;17.88;;;10.40;;
33104;SDS011;19476;51.448;6.674;2022-11-20T02:44:53;14.63;;;9.88;;
33104;SDS011;19476;51.448;6.674;2022-11-20T02:47:18;13.80;;;9.25;;
33104;SDS011;19476;51.448;6.674;2022-11-20T02:49:44;16.40;;;9.85;;
33104;SDS011;19476;51.448;6.674;2022-11-20T02:52:10;16.83;;;10.23;;
33104;SDS011;19476;51.448;6.674;2022-11-20T02:54:36;13.55;;;8.93;;
33104;SDS011;19476;51.448;6.674;2022-11-20T02:57:01;14.77;;;9.95;;
33104;SDS011;19476;51.448;6.674;2022-11-20T02:59:27;15.68;;;9.85;;
33104;SDS011;19476;51.448;6.674;2022-11-20T03:01:53;15.90;;;10.13;;
33104;SDS011;19476;51.448;6.674;2022-11-20T03:04:19;16.33;;;9.75;;
33104;SDS011;19476;51.448;6.674;2022-11-20T03:06:45;15.73;;;10.10;;
33104;SDS011;19476;51.448;6.674;2022-11-20T03:09:10;15.45;;;9.32;;
33104;SDS011;19476;51.448;6.674;2022-11-20T03:11:36;15.90;;;9.40;;
33104;SDS011;19476;51.448;6.674;2022-11-20T03:14:03;13.43;;;8.43;;
33104;SDS011;19476;51.448;6.674;2022-11-20T03:16:30;13.88;;;9.05;;
33104;SDS011;19476;51.448;6.674;2022-11-20T03:18:57;16.05;;;9.45;;
33104;SDS011;19476;51.448;6.674;2022-11-20T03:21:23;14.43;;;9.60;;
33104;SDS011;19476;51.448;6.674;2022-11-20T03:23:49;16.63;;;9.38;;
33104;SDS011;19476;51.448;6.674;2022-11-20T03:26:19;12.80;;;8.80;;
33104;SDS011;19476;51.448;6.674;2022-11-20T03:28:51;14.00;;;8.70;;
33104;SDS011;19476;51.448;6.674;2022-11-20T03:31:19;14.98;;;9.02;;
33104;SDS011;19476;51.448;6.674;2022-11-20T03:33:55;12.60;;;8.40;;
33104;SDS011;19476;51.448;6.674;2022-11-20T03:36:22;13.73;;;8.38;;
33104;SDS011;19476;51.448;6.674;2022-11-20T03:38:48;12.93;;;8.45;;
33104;SDS011;19476;51.448;6.674;2022-11-20T03:41:18;12.90;;;8.15;;
33104;SDS011;19476;51.448;6.674;2022-11-20T03:43:49;14.25;;;8.65;;
33104;SDS011;19476;51.448;6.674;2022-11-20T03:46:19;15.45;;;9.25;;
33104;SDS011;19476;51.448;6.674;2022-11-20T03:48:45;14.43;;;8.77;;
33104;SDS011;19476;51.448;6.674;2022-11-20T03:51:15;14.30;;;9.38;;
33104;SDS011;19476;51.448;6.674;2022-11-20T03:56:09;12.88;;;7.75;;
33104;SDS011;19476;51.448;6.674;2022-11-20T03:58:36;13.35;;;8.68;;
33104;SDS011;19476;51.448;6.674;2022-11-20T04:01:10;13.52;;;8.25;;
33104;SDS011;19476;51.448;6.674;2022-11-20T04:03:38;13.90;;;7.95;;
33104;SDS011;19476;51.448;6.674;2022-11-20T04:06:09;13.43;;;8.75;;
33104;SDS011;19476;51.448;6.674;2022-11-20T04:08:36;13.07;;;8.57;;
33104;SDS011;19476;51.448;6.674;2022-11-20T04:11:09;15.38;;;8.85;;
33104;SDS011;19476;51.448;6.674;2022-11-20T04:13:38;14.25;;;9.05;;
33104;SDS011;19476;51.448;6.674;2022-11-20T04:16:06;14.13;;;8.80;;
33104;SDS011;19476;51.448;6.674;2022-11-20T04:18:33;15.00;;;9.38;;
33104;SDS011;19476;51.448;6.674;2022-11-20T04:20:59;15.13;;;9.52;;
33104;SDS011;19476;51.448;6.674;2022-11-20T04:23:25;15.63;;;9.68;;
33104;SDS011;19476;51.448;6.674;2022-11-20T04:25:52;16.13;;;9.98;;
33104;SDS011;19476;51.448;6.674;2022-11-20T04:28:18;15.63;;;9.40;;
33104;SDS011;19476;51.448;6.674;2022-11-20T04:30:44;16.20;;;9.82;;
33104;SDS011;19476;51.448;6.674;2022-11-20T04:33:10;16.95;;;9.75;;
33104;SDS011;19476;51.448;6.674;2022-11-20T04:35:36;16.80;;;10.63;;
33104;SDS011;19476;51.448;6.674;2022-11-20T04:38:03;15.98;;;9.95;;
33104;SDS011;19476;51.448;6.674;2022-11-20T04:40:29;15.85;;;9.82;;
33104;SDS011;19476;51.448;6.674;2022-11-20T04:42:55;17.58;;;9.98;;
33104;SDS011;19476;51.448;6.674;2022-11-20T04:45:21;15.57;;;9.80;;
33104;SDS011;19476;51.448;6.674;2022-11-20T04:47:48;15.88;;;9.27;;
33104;SDS011;19476;51.448;6.674;2022-11-20T04:50:13;12.85;;;8.38;;
33104;SDS011;19476;51.448;6.674;2022-11-20T04:52:39;12.18;;;8.13;;
33104;SDS011;19476;51.448;6.674;2022-11-20T04:55:05;12.15;;;7.57;;
33104;SDS011;19476;51.448;6.674;2022-11-20T04:57:32;11.63;;;7.82;;
33104;SDS011;19476;51.448;6.674;2022-11-20T04:59:57;14.45;;;8.43;;
33104;SDS011;19476;51.448;6.674;2022-11-20T05:02:23;13.90;;;8.23;;
33104;SDS011;19476;51.448;6.674;2022-11-20T05:04:49;14.02;;;8.65;;
33104;SDS011;19476;51.448;6.674;2022-11-20T05:07:15;13.18;;;8.93;;
33104;SDS011;19476;51.448;6.674;2022-11-20T05:09:40;13.70;;;9.13;;
33104;SDS011;19476;51.448;6.674;2022-11-20T05:12:09;13.45;;;8.80;;
33104;SDS011;19476;51.448;6.674;2022-11-20T05:14:35;14.77;;;8.63;;
33104;SDS011;19476;51.448;6.674;2022-11-20T05:17:01;12.70;;;8.30;;
33104;SDS011;19476;51.448;6.674;2022-11-20T05:19:27;14.00;;;7.95;;
33104;SDS011;19476;51.448;6.674;2022-11-20T05:21:52;14.00;;;9.40;;
33104;SDS011;19476;51.448;6.674;2022-11-20T05:24:18;13.05;;;8.40;;
33104;SDS011;19476;51.448;6.674;2022-11-20T05:26:44;13.57;;;8.63;;
33104;SDS011;19476;51.448;6.674;2022-11-20T05:29:10;13.32;;;9.05;;
33104;SDS011;19476;51.448;6.674;2022-11-20T05:31:38;14.68;;;9.18;;
33104;SDS011;19476;51.448;6.674;2022-11-20T05:34:05;12.68;;;7.95;;
33104;SDS011;19476;51.448;6.674;2022-11-20T05:36:31;15.05;;;9.00;;
33104;SDS011;19476;51.448;6.674;2022-11-20T05:38:58;14.77;;;8.57;;
33104;SDS011;19476;51.448;6.674;2022-11-20T05:41:23;12.88;;;8.60;;
33104;SDS011;19476;51.448;6.674;2022-11-20T05:43:49;13.57;;;8.57;;
33104;SDS011;19476;51.448;6.674;2022-11-20T05:46:17;13.82;;;8.55;;
33104;SDS011;19476;51.448;6.674;2022-11-20T05:48:45;12.13;;;8.40;;
33104;SDS011;19476;51.448;6.674;2022-11-20T05:51:12;11.40;;;7.63;;
33104;SDS011;19476;51.448;6.674;2022-11-20T05:53:40;14.35;;;8.55;;
33104;SDS011;19476;51.448;6.674;2022-11-20T05:56:07;12.05;;;8.00;;
33104;SDS011;19476;51.448;6.674;2022-11-20T05:58:36;12.50;;;7.60;;
33104;SDS011;19476;51.448;6.674;2022-11-20T06:01:10;12.98;;;8.65;;
33104;SDS011;19476;51.448;6.674;2022-11-20T06:03:36;12.07;;;7.50;;
33104;SDS011;19476;51.448;6.674;2022-11-20T06:06:03;13.30;;;7.75;;
33104;SDS011;19476;51.448;6.674;2022-11-20T06:08:30;14.88;;;8.05;;
33104;SDS011;19476;51.448;6.674;2022-11-20T06:10:56;12.50;;;8.82;;
33104;SDS011;19476;51.448;6.674;2022-11-20T06:13:22;13.60;;;8.00;;
33104;SDS011;19476;51.448;6.674;2022-11-20T06:15:52;12.77;;;7.65;;
33104;SDS011;19476;51.448;6.674;2022-11-20T06:18:18;14.18;;;8.23;;
33104;SDS011;19476;51.448;6.674;2022-11-20T06:20:45;16.15;;;8.45;;
33104;SDS011;19476;51.448;6.674;2022-11-20T06:23:11;14.60;;;9.07;;
33104;SDS011;19476;51.448;6.674;2022-11-20T06:25:41;12.63;;;7.85;;
33104;SDS011;19476;51.448;6.674;2022-11-20T06:28:08;12.70;;;7.85;;
33104;SDS011;19476;51.448;6.674;2022-11-20T06:30:34;12.70;;;8.30;;
33104;SDS011;19476;51.448;6.674;2022-11-20T06:33:01;13.23;;;7.43;;
33104;SDS011;19476;51.448;6.674;2022-11-20T06:35:26;14.57;;;8.57;;
33104;SDS011;19476;51.448;6.674;2022-11-20T06:37:52;12.95;;;8.15;;
33104;SDS011;19476;51.448;6.674;2022-11-20T06:40:18;14.57;;;8.98;;
33104;SDS011;19476;51.448;6.674;2022-11-20T06:42:44;15.07;;;9.07;;
33104;SDS011;19476;51.448;6.674;2022-11-20T06:45:10;15.07;;;9.27;;
33104;SDS011;19476;51.448;6.674;2022-11-20T06:47:35;14.43;;;9.02;;
33104;SDS011;19476;51.448;6.674;2022-11-20T06:50:01;14.30;;;8.65;;
33104;SDS011;19476;51.448;6.674;2022-11-20T06:52:28;14.43;;;9.15;;
33104;SDS011;19476;51.448;6.674;2022-11-20T06:54:53;14.20;;;8.70;;
33104;SDS011;19476;51.448;6.674;2022-11-20T06:57:19;12.95;;;9.13;;
33104;SDS011;19476;51.448;6.674;2022-11-20T06:59:45;12.20;;;8.25;;
33104;SDS011;19476;51.448;6.674;2022-11-20T07:02:11;15.75;;;8.95;;
33104;SDS011;19476;51.448;6.674;2022-11-20T07:04:37;13.90;;;8.57;;
33104;SDS011;19476;51.448;6.674;2022-11-20T07:07:03;13.73;;;8.70;;
33104;SDS011;19476;51.448;6.674;2022-11-20T07:09:30;13.18;;;8.25;;
33104;SDS011;19476;51.448;6.674;2022-11-20T07:11:55;13.25;;;8.30;;
33104;SDS011;19476;51.448;6.674;2022-11-20T07:14:21;14.93;;;8.98;;
33104;SDS011;19476;51.448;6.674;2022-11-20T07:16:47;14.50;;;8.23;;
33104;SDS011;19476;51.448;6.674;2022-11-20T07:19:13;14.30;;;9.25;;
33104;SDS011;19476;51.448;6.674;2022-11-20T07:21:38;15.32;;;8.60;;
33104;SDS011;19476;51.448;6.674;2022-11-20T07:24:04;14.38;;;9.00;;
33104;SDS011;19476;51.448;6.674;2022-11-20T07:26:30;13.70;;;8.70;;
33104;SDS011;19476;51.448;6.674;2022-11-20T07:28:56;12.52;;;8.48;;
33104;SDS011;19476;51.448;6.674;2022-11-20T07:31:22;14.18;;;9.32;;
33104;SDS011;19476;51.448;6.674;2022-11-20T07:33:47;14.98;;;8.63;;
33104;SDS011;19476;51.448;6.674;2022-11-20T07:36:13;15.45;;;9.07;;
33104;SDS011;19476;51.448;6.674;2022-11-20T07:38:39;13.75;;;8.77;;
33104;SDS011;19476;51.448;6.674;2022-11-20T07:41:05;14.13;;;8.75;;
33104;SDS011;19476;51.448;6.674;2022-11-20T07:43:31;13.43;;;9.27;;
33104;SDS011;19476;51.448;6.674;2022-11-20T07:46:00;15.30;;;9.45;;
33104;SDS011;19476;51.448;6.674;2022-11-20T07:48:26;13.65;;;8.60;;
33104;SDS011;19476;51.448;6.674;2022-11-20T07:50:55;14.43;;;9.25;;
33104;SDS011;19476;51.448;6.674;2022-11-20T07:53:21;14.87;;;9.13;;
33104;SDS011;19476;51.448;6.674;2022-11-20T07:55:47;14.50;;;9.13;;
33104;SDS011;19476;51.448;6.674;2022-11-20T07:58:13;15.45;;;9.40;;
33104;SDS011;19476;51.448;6.674;2022-11-20T08:00:40;14.25;;;8.75;;
33104;SDS011;19476;51.448;6.674;2022-11-20T08:03:06;14.85;;;9.82;;
33104;SDS011;19476;51.448;6.674;2022-11-20T08:05:32;14.07;;;9.15;;
33104;SDS011;19476;51.448;6.674;2022-11-20T08:07:58;13.45;;;8.80;;
33104;SDS011;19476;51.448;6.674;2022-11-20T08:10:24;13.85;;;8.77;;
33104;SDS011;19476;51.448;6.674;2022-11-20T08:12:50;14.63;;;9.43;;
33104;SDS011;19476;51.448;6.674;2022-11-20T08:15:36;14.57;;;9.27;;
33104;SDS011;19476;51.448;6.674;2022-11-20T08:18:04;15.15;;;9.57;;
33104;SDS011;19476;51.448;6.674;2022-11-20T08:20:30;13.55;;;9.52;;
33104;SDS011;19476;51.448;6.674;2022-11-20T08:23:02;14.95;;;9.55;;
33104;SDS011;19476;51.448;6.674;2022-11-20T08:25:31;12.45;;;8.25;;
33104;SDS011;19476;51.448;6.674;2022-11-20T08:27:58;12.40;;;7.88;;
33104;SDS011;19476;51.448;6.674;2022-11-20T08:30:25;13.60;;;8.70;;
33104;SDS011;19476;51.448;6.674;2022-11-20T08:32:51;13.30;;;8.93;;
33104;SDS011;19476;51.448;6.674;2022-11-20T08:35:18;13.18;;;8.63;;
33104;SDS011;19476;51.448;6.674;2022-11-20T08:37:46;13.90;;;9.15;;
33104;SDS011;19476;51.448;6.674;2022-11-20T08:40:13;16.23;;;9.70;;
33104;SDS011;19476;51.448;6.674;2022-11-20T08:42:48;12.40;;;7.82;;
33104;SDS011;19476;51.448;6.674;2022-11-20T08:45:15;14.35;;;8.63;;
33104;SDS011;19476;51.448;6.674;2022-11-20T08:47:42;13.43;;;8.18;;
33104;SDS011;19476;51.448;6.674;2022-11-20T08:50:09;12.68;;;8.27;;
33104;SDS011;19476;51.448;6.674;2022-11-20T08:52:36;13.65;;;8.88;;
33104;SDS011;19476;51.448;6.674;2022-11-20T08:55:03;11.68;;;7.45;;
33104;SDS011;19476;51.448;6.674;2022-11-20T08:57:34;13.73;;;8.48;;
33104;SDS011;19476;51.448;6.674;2022-11-20T09:02:27;12.77;;;8.05;;
33104;SDS011;19476;51.448;6.674;2022-11-20T09:04:53;15.43;;;8.68;;
33104;SDS011;19476;51.448;6.674;2022-11-20T09:07:19;14.43;;;8.93;;
33104;SDS011;19476;51.448;6.674;2022-11-20T09:09:44;13.75;;;8.43;;
33104;SDS011;19476;51.448;6.674;2022-11-20T09:12:10;12.52;;;7.65;;
33104;SDS011;19476;51.448;6.674;2022-11-20T09:14:36;13.45;;;8.75;;
33104;SDS011;19476;51.448;6.674;2022-11-20T09:17:02;12.07;;;7.72;;
33104;SDS011;19476;51.448;6.674;2022-11-20T09:19:28;12.63;;;7.38;;
33104;SDS011;19476;51.448;6.674;2022-11-20T09:21:54;13.40;;;8.07;;
33104;SDS011;19476;51.448;6.674;2022-11-20T09:24:20;13.35;;;7.85;;
33104;SDS011;19476;51.448;6.674;2022-11-20T09:26:46;12.82;;;8.23;;
33104;SDS011;19476;51.448;6.674;2022-11-20T09:29:11;12.85;;;8.07;;
33104;SDS011;19476;51.448;6.674;2022-11-20T09:31:37;14.57;;;8.38;;
33104;SDS011;19476;51.448;6.674;2022-11-20T09:34:03;13.77;;;8.10;;
33104;SDS011;19476;51.448;6.674;2022-11-20T09:36:29;13.80;;;8.63;;
33104;SDS011;19476;51.448;6.674;2022-11-20T09:38:55;13.35;;;7.80;;
33104;SDS011;19476;51.448;6.674;2022-11-20T09:53:04;13.45;;;7.65;;
33104;SDS011;19476;51.448;6.674;2022-11-20T09:55:37;12.35;;;7.50;;
33104;SDS011;19476;51.448;6.674;2022-11-20T09:58:12;12.68;;;8.60;;
33104;SDS011;19476;51.448;6.674;2022-11-20T10:00:48;14.50;;;9.65;;
33104;SDS011;19476;51.448;6.674;2022-11-20T10:03:17;14.68;;;8.93;;
33104;SDS011;19476;51.448;6.674;2022-11-20T10:05:52;13.80;;;8.90;;
33104;SDS011;19476;51.448;6.674;2022-11-20T10:08:29;13.02;;;8.60;;
33104;SDS011;19476;51.448;6.674;2022-11-20T10:27:43;12.75;;;7.88;;
33104;SDS011;19476;51.448;6.674;2022-11-20T10:30:26;12.98;;;8.10;;
33104;SDS011;19476;51.448;6.674;2022-11-20T10:32:54;14.25;;;8.90;;
33104;SDS011;19476;51.448;6.674;2022-11-20T10:35:42;14.60;;;8.93;;
33104;SDS011;19476;51.448;6.674;2022-11-20T10:38:42;13.88;;;8.88;;
33104;SDS011;19476;51.448;6.674;2022-11-20T10:41:15;14.80;;;8.93;;
33104;SDS011;19476;51.448;6.674;2022-11-20T10:44:02;16.60;;;9.23;;
33104;SDS011;19476;51.448;6.674;2022-11-20T10:46:39;13.85;;;8.52;;
33104;SDS011;19476;51.448;6.674;2022-11-20T10:49:18;14.18;;;8.73;;
33104;SDS011;19476;51.448;6.674;2022-11-20T11:00:33;16.02;;;8.75;;
33104;SDS011;19476;51.448;6.674;2022-11-20T11:02:59;15.98;;;9.50;;
33104;SDS011;19476;51.448;6.674;2022-11-20T11:05:41;18.25;;;9.55;;
33104;SDS011;19476;51.448;6.674;2022-11-20T11:08:16;15.07;;;8.68;;
33104;SDS011;19476;51.448;6.674;2022-11-20T11:10:54;17.05;;;9.10;;
33104;SDS011;19476;51.448;6.674;2022-11-20T11:15:51;16.77;;;9.90;;
33104;SDS011;19476;51.448;6.674;2022-11-20T11:18:25;17.35;;;10.00;;
33104;SDS011;19476;51.448;6.674;2022-11-20T11:20:57;18.85;;;10.23;;
33104;SDS011;19476;51.448;6.674;2022-11-20T11:26:00;17.55;;;9.18;;
33104;SDS011;19476;51.448;6.674;2022-11-20T11:28:28;17.50;;;10.88;;
33104;SDS011;19476;51.448;6.674;2022-11-20T11:30:54;16.38;;;9.30;;
33104;SDS011;19476;51.448;6.674;2022-11-20T11:35:55;23.13;;;11.05;;
33104;SDS011;19476;51.448;6.674;2022-11-20T11:38:34;21.50;;;11.50;;
33104;SDS011;19476;51.448;6.674;2022-11-20T11:41:07;16.98;;;10.18;;
33104;SDS011;19476;51.448;6.674;2022-11-20T11:43:37;18.20;;;10.35;;
33104;SDS011;19476;51.448;6.674;2022-11-20T11:48:54;13.65;;;8.30;;
33104;SDS011;19476;51.448;6.674;2022-11-20T11:54:23;15.13;;;9.10;;
33104;SDS011;19476;51.448;6.674;2022-11-20T11:57:12;16.73;;;9.43;;
33104;SDS011;19476;51.448;6.674;2022-11-20T12:07:42;14.68;;;8.50;;
33104;SDS011;19476;51.448;6.674;2022-11-20T12:10:14;16.83;;;9.45;;
33104;SDS011;19476;51.448;6.674;2022-11-20T12:12:42;14.88;;;8.43;;
33104;SDS011;19476;51.448;6.674;2022-11-20T12:15:13;15.15;;;8.93;;
33104;SDS011;19476;51.448;6.674;2022-11-20T12:17:48;15.50;;;9.10;;
33104;SDS011;19476;51.448;6.674;2022-11-20T12:20:14;19.45;;;10.55;;
33104;SDS011;19476;51.448;6.674;2022-11-20T12:25:18;19.48;;;11.30;;
33104;SDS011;19476;51.448;6.674;2022-11-20T12:30:45;15.13;;;8.40;;
33104;SDS011;19476;51.448;6.674;2022-11-20T12:44:50;13.55;;;7.78;;
33104;SDS011;19476;51.448;6.674;2022-11-20T13:06:57;13.65;;;7.97;;
33104;SDS011;19476;51.448;6.674;2022-11-20T13:09:24;14.63;;;8.70;;
33104;SDS011;19476;51.448;6.674;2022-11-20T13:12:06;15.30;;;8.75;;
33104;SDS011;19476;51.448;6.674;2022-11-20T13:20:13;16.02;;;7.93;;
33104;SDS011;19476;51.448;6.674;2022-11-20T13:22:51;13.77;;;8.17;;
33104;SDS011;19476;51.448;6.674;2022-11-20T13:28:03;16.92;;;8.57;;
33104;SDS011;19476;51.448;6.674;2022-11-20T13:30:36;14.20;;;8.10;;
33104;SDS011;19476;51.448;6.674;2022-11-20T13:33:23;11.88;;;6.90;;
33104;SDS011;19476;51.448;6.674;2022-11-20T13:40:54;15.18;;;9.13;;
33104;SDS011;19476;51.448;6.674;2022-11-20T13:43:33;17.02;;;9.90;;
33104;SDS011;19476;51.448;6.674;2022-11-20T13:48:30;16.55;;;9.55;;
33104;SDS011;19476;51.448;6.674;2022-11-20T14:02:27;14.70;;;8.98;;
33104;SDS011;19476;51.448;6.674;2022-11-20T14:04:56;14.73;;;8.57;;
33104;SDS011;19476;51.448;6.674;2022-11-20T14:07:26;13.25;;;7.75;;
33104;SDS011;19476;51.448;6.674;2022-11-20T14:09:58;14.60;;;8.68;;
33104;SDS011;19476;51.448;6.674;2022-11-20T14:12:33;14.63;;;8.05;;
33104;SDS011;19476;51.448;6.674;2022-11-20T14:14:59;15.77;;;9.45;;
33104;SDS011;19476;51.448;6.674;2022-11-20T14:19:54;17.13;;;8.95;;
33104;SDS011;19476;51.448;6.674;2022-11-20T14:22:25;15.10;;;8.85;;
33104;SDS011;19476;51.448;6.674;2022-11-20T14:27:41;15.68;;;8.77;;
33104;SDS011;19476;51.448;6.674;2022-11-20T14:30:19;15.02;;;8.57;;
33104;SDS011;19476;51.448;6.674;2022-11-20T14:32:47;13.77;;;8.32;;
33104;SDS011;19476;51.448;6.674;2022-11-20T14:35:23;16.35;;;9.45;;
33104;SDS011;19476;51.448;6.674;2022-11-20T14:37:54;17.50;;;9.70;;
33104;SDS011;19476;51.448;6.674;2022-11-20T14:40:24;16.65;;;10.07;;
33104;SDS011;19476;51.448;6.674;2022-11-20T14:42:52;16.90;;;10.40;;
33104;SDS011;19476;51.448;6.674;2022-11-20T14:45:18;17.05;;;9.93;;
33104;SDS011;19476;51.448;6.674;2022-11-20T14:47:46;18.10;;;10.70;;
33104;SDS011;19476;51.448;6.674;2022-11-20T14:50:18;15.88;;;9.35;;
33104;SDS011;19476;51.448;6.674;2022-11-20T14:52:51;17.67;;;9.43;;
33104;SDS011;19476;51.448;6.674;2022-11-20T14:55:29;15.00;;;9.02;;
33104;SDS011;19476;51.448;6.674;2022-11-20T14:57:55;14.73;;;8.48;;
33104;SDS011;19476;51.448;6.674;2022-11-20T15:00:23;16.15;;;9.00;;
33104;SDS011;19476;51.448;6.674;2022-11-20T15:02:50;14.70;;;9.70;;
33104;SDS011;19476;51.448;6.674;2022-11-20T15:05:21;18.10;;;10.77;;
33104;SDS011;19476;51.448;6.674;2022-11-20T15:08:08;16.00;;;9.40;;
33104;SDS011;19476;51.448;6.674;2022-11-20T15:10:35;15.70;;;9.20;;
33104;SDS011;19476;51.448;6.674;2022-11-20T15:13:05;16.42;;;9.40;;
33104;SDS011;19476;51.448;6.674;2022-11-20T15:15:47;16.58;;;9.18;;
33104;SDS011;19476;51.448;6.674;2022-11-20T15:18:28;16.42;;;8.80;;
33104;SDS011;19476;51.448;6.674;2022-11-20T15:20:57;16.67;;;8.60;;
33104;SDS011;19476;51.448;6.674;2022-11-20T15:23:27;15.95;;;9.23;;
33104;SDS011;19476;51.448;6.674;2022-11-20T15:25:54;15.23;;;8.95;;
33104;SDS011;19476;51.448;6.674;2022-11-20T15:28:37;19.30;;;10.27;;
33104;SDS011;19476;51.448;6.674;2022-11-20T15:31:06;17.27;;;9.60;;
33104;SDS011;19476;51.448;6.674;2022-11-20T15:36:02;17.02;;;9.35;;
33104;SDS011;19476;51.448;6.674;2022-11-20T15:38:27;19.10;;;10.35;;
33104;SDS011;19476;51.448;6.674;2022-11-20T15:40:54;17.20;;;10.02;;
33104;SDS011;19476;51.448;6.674;2022-11-20T15:43:19;18.75;;;9.35;;
33104;SDS011;19476;51.448;6.674;2022-11-20T15:46:09;18.25;;;10.25;;
33104;SDS011;19476;51.448;6.674;2022-11-20T15:48:44;16.67;;;9.55;;
33104;SDS011;19476;51.448;6.674;2022-11-20T15:51:19;16.10;;;9.02;;
33104;SDS011;19476;51.448;6.674;2022-11-20T15:53:52;16.65;;;8.95;;
33104;SDS011;19476;51.448;6.674;2022-11-20T15:56:19;14.73;;;9.13;;
33104;SDS011;19476;51.448;6.674;2022-11-20T15:58:45;17.63;;;9.80;;
33104;SDS011;19476;51.448;6.674;2022-11-20T16:01:11;16.95;;;10.05;;
33104;SDS011;19476;51.448;6.674;2022-11-20T16:03:38;18.08;;;10.10;;
33104;SDS011;19476;51.448;6.674;2022-11-20T16:06:05;16.75;;;8.90;;
33104;SDS011;19476;51.448;6.674;2022-11-20T16:08:30;17.48;;;10.38;;
33104;SDS011;19476;51.448;6.674;2022-11-20T16:10:56;16.77;;;9.57;;
33104;SDS011;19476;51.448;6.674;2022-11-20T16:13:22;15.98;;;9.50;;
33104;SDS011;19476;51.448;6.674;2022-11-20T16:16:18;15.70;;;9.43;;
33104;SDS011;19476;51.448;6.674;2022-11-20T16:18:48;16.13;;;9.38;;
33104;SDS011;19476;51.448;6.674;2022-11-20T16:21:14;14.63;;;8.80;;
33104;SDS011;19476;51.448;6.674;2022-11-20T16:23:41;16.65;;;9.10;;
33104;SDS011;19476;51.448;6.674;2022-11-20T16:26:25;18.42;;;10.35;;
33104;SDS011;19476;51.448;6.674;2022-11-20T16:28:51;19.10;;;10.77;;
33104;SDS011;19476;51.448;6.674;2022-11-20T16:31:18;16.65;;;9.73;;
33104;SDS011;19476;51.448;6.674;2022-11-20T16:33:51;17.02;;;9.63;;
33104;SDS011;19476;51.448;6.674;2022-11-20T16:36:19;18.70;;;9.85;;
33104;SDS011;19476;51.448;6.674;2022-11-20T16:38:45;17.50;;;9.52;;
33104;SDS011;19476;51.448;6.674;2022-11-20T16:41:12;17.55;;;9.80;;
33104;SDS011;19476;51.448;6.674;2022-11-20T16:43:46;15.48;;;9.38;;
33104;SDS011;19476;51.448;6.674;2022-11-20T16:46:15;13.68;;;8.25;;
33104;SDS011;19476;51.448;6.674;2022-11-20T16:48:41;14.77;;;8.07;;
33104;SDS011;19476;51.448;6.674;2022-11-20T16:51:08;13.63;;;7.93;;
33104;SDS011;19476;51.448;6.674;2022-11-20T16:53:35;15.25;;;8.35;;
33104;SDS011;19476;51.448;6.674;2022-11-20T16:56:11;12.40;;;7.70;;
33104;SDS011;19476;51.448;6.674;2022-11-20T16:58:37;13.27;;;7.18;;
33104;SDS011;19476;51.448;6.674;2022-11-20T17:01:07;13.48;;;7.43;;
33104;SDS011;19476;51.448;6.674;2022-11-20T17:03:38;15.00;;;8.20;;
33104;SDS011;19476;51.448;6.674;2022-11-20T17:06:12;12.57;;;6.80;;
33104;SDS011;19476;51.448;6.674;2022-11-20T17:08:39;14.07;;;7.18;;
33104;SDS011;19476;51.448;6.674;2022-11-20T17:11:06;13.70;;;7.05;;
33104;SDS011;19476;51.448;6.674;2022-11-20T17:13:32;12.52;;;7.55;;
33104;SDS011;19476;51.448;6.674;2022-11-20T17:16:02;11.85;;;7.15;;
33104;SDS011;19476;51.448;6.674;2022-11-20T17:18:30;12.75;;;6.72;;
33104;SDS011;19476;51.448;6.674;2022-11-20T17:20:56;12.43;;;6.85;;
33104;SDS011;19476;51.448;6.674;2022-11-20T17:23:22;12.98;;;6.60;;
33104;SDS011;19476;51.448;6.674;2022-11-20T17:25:48;12.80;;;6.90;;
33104;SDS011;19476;51.448;6.674;2022-11-20T17:28:14;11.10;;;6.43;;